sensor_id;sensor_type;location;lat;lon;timestamp;pressure;altitude;pressure_sealevel;temperature;humidity
70009;BME280;59542;37.950;-122.338;2023-06-24T00:01:27;101554.59;;;22.23;46.26
70009;BME280;59542;37.950;-122.338;2023-06-24T00:03:54;101555.28;;;22.03;47.29
70009;BME280;59542;37.950;-122.338;2023-06-24T00:06:21;101551.13;;;21.90;46.40
70009;BME280;59542;37.950;-122.338;2023-06-24T00:08:51;101552.78;;;21.49;48.26
70009;BME280;59542;37.950;-122.338;2023-06-24T00:11:18;101554.16;;;21.51;48.82
70009;BME280;59542;37.950;-122.338;2023-06-24T00:13:44;101549.91;;;21.71;48.13
70009;BME280;59542;37.950;-122.338;2023-06-24T00:16:11;101544.56;;;21.86;47.89
70009;BME280;59542;37.950;-122.338;2023-06-24T00:18:37;101543.97;;;21.79;49.13
70009;BME280;59542;37.950;-122.338;2023-06-24T00:21:07;101538.38;;;22.01;47.61
70009;BME280;59542;37.950;-122.338;2023-06-24T00:23:33;101539.81;;;22.13;47.85
70009;BME280;59542;37.950;-122.338;2023-06-24T00:26:02;101539.56;;;22.20;46.92
70009;BME280;59542;37.950;-122.338;2023-06-24T00:28:29;101534.94;;;22.21;46.59
70009;BME280;59542;37.950;-122.338;2023-06-24T00:30:56;101535.22;;;22.24;47.54
70009;BME280;59542;37.950;-122.338;2023-06-24T00:33:22;101538.50;;;22.26;47.73
70009;BME280;59542;37.950;-122.338;2023-06-24T00:35:48;101544.84;;;21.84;48.92
70009;BME280;59542;37.950;-122.338;2023-06-24T00:38:14;101535.91;;;21.52;48.90
70009;BME280;59542;37.950;-122.338;2023-06-24T00:40:41;101536.88;;;21.35;50.26
70009;BME280;59542;37.950;-122.338;2023-06-24T00:43:08;101536.78;;;20.93;50.46
70009;BME280;59542;37.950;-122.338;2023-06-24T00:45:35;101539.84;;;20.75;52.41
70009;BME280;59542;37.950;-122.338;2023-06-24T00:48:02;101531.63;;;20.70;52.47
70009;BME280;59542;37.950;-122.338;2023-06-24T00:50:29;101533.44;;;20.59;52.59
70009;BME280;59542;37.950;-122.338;2023-06-24T00:52:55;101527.03;;;20.70;52.78
70009;BME280;59542;37.950;-122.338;2023-06-24T00:55:21;101523.53;;;20.48;52.97
70009;BME280;59542;37.950;-122.338;2023-06-24T00:57:50;101532.31;;;20.33;52.56
70009;BME280;59542;37.950;-122.338;2023-06-24T01:00:18;101523.53;;;20.48;52.46
70009;BME280;59542;37.950;-122.338;2023-06-24T01:02:47;101539.59;;;20.06;53.16
70009;BME280;59542;37.950;-122.338;2023-06-24T01:05:15;101542.13;;;20.12;53.94
70009;BME280;59542;37.950;-122.338;2023-06-24T01:07:42;101545.09;;;20.11;54.59
70009;BME280;59542;37.950;-122.338;2023-06-24T01:10:10;101543.31;;;20.21;54.55
70009;BME280;59542;37.950;-122.338;2023-06-24T01:12:40;101539.59;;;20.27;54.39
70009;BME280;59542;37.950;-122.338;2023-06-24T01:15:10;101540.28;;;20.62;53.15
70009;BME280;59542;37.950;-122.338;2023-06-24T01:17:59;101542.38;;;20.81;52.99
70009;BME280;59542;37.950;-122.338;2023-06-24T01:23:24;101553.19;;;20.27;53.25
70009;BME280;59542;37.950;-122.338;2023-06-24T01:36:40;101555.34;;;21.01;50.44
70009;BME280;59542;37.950;-122.338;2023-06-24T01:39:14;101548.38;;;21.11;49.81
70009;BME280;59542;37.950;-122.338;2023-06-24T01:41:46;101563.09;;;21.15;50.07
70009;BME280;59542;37.950;-122.338;2023-06-24T01:44:15;101555.34;;;21.01;50.07
70009;BME280;59542;37.950;-122.338;2023-06-24T01:46:46;101551.44;;;20.92;50.16
70009;BME280;59542;37.950;-122.338;2023-06-24T01:49:16;101553.94;;;20.94;49.86
70009;BME280;59542;37.950;-122.338;2023-06-24T01:51:45;101553.06;;;21.20;50.23
70009;BME280;59542;37.950;-122.338;2023-06-24T01:54:15;101554.91;;;21.15;49.42
70009;BME280;59542;37.950;-122.338;2023-06-24T01:56:46;101554.47;;;21.23;48.48
70009;BME280;59542;37.950;-122.338;2023-06-24T01:59:14;101561.47;;;21.46;48.15
70009;BME280;59542;37.950;-122.338;2023-06-24T02:01:42;101551.38;;;21.83;48.14
70009;BME280;59542;37.950;-122.338;2023-06-24T02:04:10;101552.50;;;21.93;47.06
70009;BME280;59542;37.950;-122.338;2023-06-24T02:06:39;101548.75;;;22.09;46.68
70009;BME280;59542;37.950;-122.338;2023-06-24T02:09:07;101557.84;;;22.20;45.02
70009;BME280;59542;37.950;-122.338;2023-06-24T02:11:36;101556.00;;;22.35;44.82
70009;BME280;59542;37.950;-122.338;2023-06-24T02:14:04;101563.16;;;22.57;44.96
70009;BME280;59542;37.950;-122.338;2023-06-24T02:16:33;101561.28;;;22.73;44.00
70009;BME280;59542;37.950;-122.338;2023-06-24T02:19:01;101558.38;;;23.00;43.66
70009;BME280;59542;37.950;-122.338;2023-06-24T02:21:28;101558.91;;;22.97;43.42
70009;BME280;59542;37.950;-122.338;2023-06-24T02:23:55;101558.63;;;23.24;43.10
70009;BME280;59542;37.950;-122.338;2023-06-24T02:26:22;101559.47;;;23.29;42.46
70009;BME280;59542;37.950;-122.338;2023-06-24T02:28:49;101557.25;;;23.41;42.31
70009;BME280;59542;37.950;-122.338;2023-06-24T02:31:16;101563.28;;;23.23;42.58
70009;BME280;59542;37.950;-122.338;2023-06-24T02:33:43;101563.53;;;22.96;43.54
70009;BME280;59542;37.950;-122.338;2023-06-24T02:36:09;101552.63;;;23.27;43.06
70009;BME280;59542;37.950;-122.338;2023-06-24T02:38:36;101556.44;;;23.21;43.14
70009;BME280;59542;37.950;-122.338;2023-06-24T02:41:03;101563.81;;;22.95;43.76
70009;BME280;59542;37.950;-122.338;2023-06-24T02:43:31;101560.75;;;22.86;43.75
70009;BME280;59542;37.950;-122.338;2023-06-24T02:45:59;101555.34;;;22.96;43.67
70009;BME280;59542;37.950;-122.338;2023-06-24T02:48:26;101552.81;;;22.64;44.42
70009;BME280;59542;37.950;-122.338;2023-06-24T02:50:54;101553.25;;;22.35;44.90
70009;BME280;59542;37.950;-122.338;2023-06-24T02:53:21;101556.00;;;22.40;45.25
70009;BME280;59542;37.950;-122.338;2023-06-24T02:55:47;101555.31;;;22.08;45.71
70009;BME280;59542;37.950;-122.338;2023-06-24T02:58:15;101564.91;;;21.68;46.78
70009;BME280;59542;37.950;-122.338;2023-06-24T03:00:41;101561.38;;;21.73;46.88
70009;BME280;59542;37.950;-122.338;2023-06-24T03:03:08;101560.66;;;21.45;47.75
70009;BME280;59542;37.950;-122.338;2023-06-24T03:05:35;101561.88;;;21.00;48.98
70009;BME280;59542;37.950;-122.338;2023-06-24T03:08:02;101565.47;;;20.79;49.30
70009;BME280;59542;37.950;-122.338;2023-06-24T03:10:31;101565.63;;;20.67;50.01
70009;BME280;59542;37.950;-122.338;2023-06-24T03:12:57;101564.28;;;20.26;51.57
70009;BME280;59542;37.950;-122.338;2023-06-24T03:15:23;101575.41;;;20.02;52.49
70009;BME280;59542;37.950;-122.338;2023-06-24T03:17:50;101571.56;;;19.82;53.41
70009;BME280;59542;37.950;-122.338;2023-06-24T03:20:17;101583.13;;;19.72;53.43
70009;BME280;59542;37.950;-122.338;2023-06-24T03:22:43;101576.03;;;19.20;54.67
70009;BME280;59542;37.950;-122.338;2023-06-24T03:25:10;101580.66;;;18.91;55.60
70009;BME280;59542;37.950;-122.338;2023-06-24T03:27:36;101579.44;;;18.82;55.81
70009;BME280;59542;37.950;-122.338;2023-06-24T03:30:03;101573.94;;;18.94;56.16
70009;BME280;59542;37.950;-122.338;2023-06-24T03:32:29;101589.84;;;18.73;56.30
70009;BME280;59542;37.950;-122.338;2023-06-24T03:34:55;101594.41;;;18.21;57.97
70009;BME280;59542;37.950;-122.338;2023-06-24T03:37:22;101592.47;;;18.05;58.42
70009;BME280;59542;37.950;-122.338;2023-06-24T03:39:48;101592.44;;;18.16;58.18
70009;BME280;59542;37.950;-122.338;2023-06-24T03:42:14;101593.97;;;18.12;58.82
70009;BME280;59542;37.950;-122.338;2023-06-24T03:44:40;101598.31;;;18.13;58.53
70009;BME280;59542;37.950;-122.338;2023-06-24T03:47:06;101597.66;;;17.83;59.59
70009;BME280;59542;37.950;-122.338;2023-06-24T03:49:33;101602.31;;;17.64;60.44
70009;BME280;59542;37.950;-122.338;2023-06-24T03:51:59;101603.13;;;17.64;60.41
70009;BME280;59542;37.950;-122.338;2023-06-24T03:54:25;101599.22;;;17.49;60.82
70009;BME280;59542;37.950;-122.338;2023-06-24T03:56:51;101611.75;;;17.61;60.70
70009;BME280;59542;37.950;-122.338;2023-06-24T03:59:18;101611.53;;;17.21;61.08
70009;BME280;59542;37.950;-122.338;2023-06-24T04:01:44;101612.13;;;16.93;60.75
70009;BME280;59542;37.950;-122.338;2023-06-24T04:04:10;101607.38;;;17.07;60.42
70009;BME280;59542;37.950;-122.338;2023-06-24T04:06:36;101609.06;;;17.20;61.86
70009;BME280;59542;37.950;-122.338;2023-06-24T04:09:02;101609.94;;;17.02;62.63
70009;BME280;59542;37.950;-122.338;2023-06-24T04:11:29;101606.47;;;16.83;64.07
70009;BME280;59542;37.950;-122.338;2023-06-24T04:13:55;101613.41;;;16.60;62.34
70009;BME280;59542;37.950;-122.338;2023-06-24T04:16:21;101609.63;;;16.61;61.66
70009;BME280;59542;37.950;-122.338;2023-06-24T04:18:47;101609.53;;;16.68;61.12
70009;BME280;59542;37.950;-122.338;2023-06-24T04:21:14;101615.66;;;16.27;62.52
70009;BME280;59542;37.950;-122.338;2023-06-24T04:23:40;101610.94;;;16.22;62.80
70009;BME280;59542;37.950;-122.338;2023-06-24T04:26:06;101621.13;;;16.39;61.94
70009;BME280;59542;37.950;-122.338;2023-06-24T04:28:32;101619.94;;;16.16;63.27
70009;BME280;59542;37.950;-122.338;2023-06-24T04:30:59;101617.50;;;16.26;62.87
70009;BME280;59542;37.950;-122.338;2023-06-24T04:33:25;101613.91;;;16.14;63.06
70009;BME280;59542;37.950;-122.338;2023-06-24T04:35:51;101618.34;;;16.08;63.14
70009;BME280;59542;37.950;-122.338;2023-06-24T04:38:17;101619.84;;;16.23;62.35
70009;BME280;59542;37.950;-122.338;2023-06-24T04:40:44;101617.50;;;16.26;62.51
70009;BME280;59542;37.950;-122.338;2023-06-24T04:43:11;101613.91;;;16.14;62.87
70009;BME280;59542;37.950;-122.338;2023-06-24T04:45:37;101622.53;;;16.04;62.81
70009;BME280;59542;37.950;-122.338;2023-06-24T04:48:04;101628.16;;;16.03;63.09
70009;BME280;59542;37.950;-122.338;2023-06-24T04:50:30;101631.69;;;16.03;63.01
70009;BME280;59542;37.950;-122.338;2023-06-24T04:52:56;101620.72;;;15.98;63.33
70009;BME280;59542;37.950;-122.338;2023-06-24T04:55:23;101625.28;;;15.98;63.14
70009;BME280;59542;37.950;-122.338;2023-06-24T04:57:49;101623.06;;;15.95;63.46
70009;BME280;59542;37.950;-122.338;2023-06-24T05:00:15;101621.00;;;15.90;63.58
70009;BME280;59542;37.950;-122.338;2023-06-24T05:02:42;101623.56;;;15.85;63.83
70009;BME280;59542;37.950;-122.338;2023-06-24T05:05:08;101616.44;;;15.91;63.51
70009;BME280;59542;37.950;-122.338;2023-06-24T05:07:34;101612.91;;;15.90;63.81
70009;BME280;59542;37.950;-122.338;2023-06-24T05:10:01;101624.34;;;15.67;64.26
70009;BME280;59542;37.950;-122.338;2023-06-24T05:12:27;101621.03;;;15.58;64.71
70009;BME280;59542;37.950;-122.338;2023-06-24T05:14:53;101621.09;;;15.52;64.80
70009;BME280;59542;37.950;-122.338;2023-06-24T05:17:20;101613.41;;;15.55;64.32
70009;BME280;59542;37.950;-122.338;2023-06-24T05:19:46;101617.75;;;15.56;64.56
70009;BME280;59542;37.950;-122.338;2023-06-24T05:22:12;101608.25;;;15.47;64.86
70009;BME280;59542;37.950;-122.338;2023-06-24T05:24:39;101614.28;;;15.49;64.87
70009;BME280;59542;37.950;-122.338;2023-06-24T05:27:07;101626.78;;;15.44;65.37
70009;BME280;59542;37.950;-122.338;2023-06-24T05:29:34;101617.34;;;15.28;65.77
70009;BME280;59542;37.950;-122.338;2023-06-24T05:32:00;101622.97;;;15.20;66.43
70009;BME280;59542;37.950;-122.338;2023-06-24T05:34:30;101624.31;;;15.11;66.94
70009;BME280;59542;37.950;-122.338;2023-06-24T05:36:56;101619.88;;;15.23;66.56
70009;BME280;59542;37.950;-122.338;2023-06-24T05:39:22;101615.91;;;15.25;66.60
70009;BME280;59542;37.950;-122.338;2023-06-24T05:41:48;101617.63;;;15.13;66.87
70009;BME280;59542;37.950;-122.338;2023-06-24T05:44:14;101617.22;;;15.10;66.87
70009;BME280;59542;37.950;-122.338;2023-06-24T05:46:44;101620.91;;;15.22;66.47
70009;BME280;59542;37.950;-122.338;2023-06-24T05:49:11;101626.31;;;15.22;66.63
70009;BME280;59542;37.950;-122.338;2023-06-24T05:51:37;101621.50;;;15.24;66.53
70009;BME280;59542;37.950;-122.338;2023-06-24T05:54:04;101613.16;;;15.32;66.28
70009;BME280;59542;37.950;-122.338;2023-06-24T05:56:30;101613.06;;;15.45;65.70
70009;BME280;59542;37.950;-122.338;2023-06-24T05:58:56;101612.72;;;15.35;65.79
70009;BME280;59542;37.950;-122.338;2023-06-24T06:01:23;101615.31;;;15.48;65.24
70009;BME280;59542;37.950;-122.338;2023-06-24T06:03:49;101613.59;;;15.54;65.26
70009;BME280;59542;37.950;-122.338;2023-06-24T06:06:15;101607.78;;;15.57;65.26
70009;BME280;59542;37.950;-122.338;2023-06-24T06:08:41;101613.78;;;15.59;65.17
70009;BME280;59542;37.950;-122.338;2023-06-24T06:11:08;101613.22;;;15.50;65.12
70009;BME280;59542;37.950;-122.338;2023-06-24T06:13:34;101613.59;;;15.54;64.74
70009;BME280;59542;37.950;-122.338;2023-06-24T06:16:00;101619.16;;;15.66;64.63
70009;BME280;59542;37.950;-122.338;2023-06-24T06:18:26;101611.13;;;15.52;65.46
70009;BME280;59542;37.950;-122.338;2023-06-24T06:20:53;101612.44;;;15.43;65.34
70009;BME280;59542;37.950;-122.338;2023-06-24T06:23:19;101608.75;;;15.38;65.52
70009;BME280;59542;37.950;-122.338;2023-06-24T06:25:46;101604.56;;;15.17;66.64
70009;BME280;59542;37.950;-122.338;2023-06-24T06:28:12;101599.75;;;15.19;66.35
70009;BME280;59542;37.950;-122.338;2023-06-24T06:30:38;101596.97;;;15.32;66.20
70009;BME280;59542;37.950;-122.338;2023-06-24T06:33:05;101595.66;;;15.10;66.92
70009;BME280;59542;37.950;-122.338;2023-06-24T06:35:31;101590.28;;;15.10;67.22
70009;BME280;59542;37.950;-122.338;2023-06-24T06:37:57;101588.69;;;15.02;67.17
70009;BME280;59542;37.950;-122.338;2023-06-24T06:40:24;101597.75;;;15.08;67.40
70009;BME280;59542;37.950;-122.338;2023-06-24T06:42:51;101608.59;;;15.01;67.79
70009;BME280;59542;37.950;-122.338;2023-06-24T06:45:17;101606.53;;;14.96;67.54
70009;BME280;59542;37.950;-122.338;2023-06-24T06:47:43;101590.28;;;15.10;67.33
70009;BME280;59542;37.950;-122.338;2023-06-24T06:50:12;101592.41;;;15.01;67.68
70009;BME280;59542;37.950;-122.338;2023-06-24T06:52:38;101593.84;;;15.03;67.54
70009;BME280;59542;37.950;-122.338;2023-06-24T06:55:05;101587.41;;;15.04;67.45
70009;BME280;59542;37.950;-122.338;2023-06-24T06:57:31;101588.91;;;15.00;67.59
70009;BME280;59542;37.950;-122.338;2023-06-24T06:59:57;101579.53;;;15.03;67.20
70009;BME280;59542;37.950;-122.338;2023-06-24T07:02:24;101579.47;;;15.16;66.88
70009;BME280;59542;37.950;-122.338;2023-06-24T07:04:50;101567.41;;;15.19;67.15
70009;BME280;59542;37.950;-122.338;2023-06-24T07:07:17;101569.84;;;15.27;66.94
70009;BME280;59542;37.950;-122.338;2023-06-24T07:09:43;101569.44;;;15.23;66.74
70009;BME280;59542;37.950;-122.338;2023-06-24T07:12:09;101565.75;;;15.18;66.83
70009;BME280;59542;37.950;-122.338;2023-06-24T07:14:36;101555.91;;;15.05;67.06
70009;BME280;59542;37.950;-122.338;2023-06-24T07:17:02;101547.59;;;15.07;66.82
70009;BME280;59542;37.950;-122.338;2023-06-24T07:19:28;101555.19;;;15.16;66.48
70009;BME280;59542;37.950;-122.338;2023-06-24T07:21:54;101549.19;;;15.14;66.47
70009;BME280;59542;37.950;-122.338;2023-06-24T07:24:20;101552.03;;;15.19;66.53
70009;BME280;59542;37.950;-122.338;2023-06-24T07:26:47;101557.59;;;14.99;66.94
70009;BME280;59542;37.950;-122.338;2023-06-24T07:29:13;101552.38;;;14.73;68.10
70009;BME280;59542;37.950;-122.338;2023-06-24T07:31:40;101560.31;;;14.61;68.59
70009;BME280;59542;37.950;-122.338;2023-06-24T07:34:06;101562.88;;;14.81;67.65
70009;BME280;59542;37.950;-122.338;2023-06-24T07:36:32;101564.69;;;14.94;67.30
70009;BME280;59542;37.950;-122.338;2023-06-24T07:38:58;101560.81;;;14.76;67.59
70009;BME280;59542;37.950;-122.338;2023-06-24T07:41:25;101558.16;;;14.70;67.67
70009;BME280;59542;37.950;-122.338;2023-06-24T07:43:51;101555.88;;;14.73;67.74
70009;BME280;59542;37.950;-122.338;2023-06-24T07:46:18;101553.91;;;14.87;68.63
70009;BME280;59542;37.950;-122.338;2023-06-24T07:48:44;101551.72;;;14.71;69.03
70009;BME280;59542;37.950;-122.338;2023-06-24T07:51:10;101548.44;;;14.69;69.47
70009;BME280;59542;37.950;-122.338;2023-06-24T07:53:36;101542.19;;;14.75;70.06
70009;BME280;59542;37.950;-122.338;2023-06-24T07:56:02;101550.53;;;14.60;70.80
70009;BME280;59542;37.950;-122.338;2023-06-24T07:58:29;101540.22;;;14.57;70.33
70009;BME280;59542;37.950;-122.338;2023-06-24T08:00:55;101540.91;;;14.39;70.73
70009;BME280;59542;37.950;-122.338;2023-06-24T08:03:21;101541.31;;;14.49;70.58
70009;BME280;59542;37.950;-122.338;2023-06-24T08:05:48;101542.13;;;14.37;70.78
70009;BME280;59542;37.950;-122.338;2023-06-24T08:08:15;101530.38;;;14.24;71.43
70009;BME280;59542;37.950;-122.338;2023-06-24T08:10:44;101535.06;;;14.56;70.68
70009;BME280;59542;37.950;-122.338;2023-06-24T08:13:10;101527.84;;;14.36;71.04
70009;BME280;59542;37.950;-122.338;2023-06-24T08:15:36;101538.44;;;14.31;72.09
70009;BME280;59542;37.950;-122.338;2023-06-24T08:18:02;101533.13;;;14.18;72.65
70009;BME280;59542;37.950;-122.338;2023-06-24T08:20:29;101527.91;;;14.23;72.70
70009;BME280;59542;37.950;-122.338;2023-06-24T08:22:55;101533.38;;;13.96;73.36
70009;BME280;59542;37.950;-122.338;2023-06-24T08:25:21;101536.47;;;14.07;73.14
70009;BME280;59542;37.950;-122.338;2023-06-24T08:27:47;101542.72;;;13.81;74.14
70009;BME280;59542;37.950;-122.338;2023-06-24T08:30:14;101531.53;;;13.90;73.78
70009;BME280;59542;37.950;-122.338;2023-06-24T08:32:41;101533.16;;;13.98;73.31
70009;BME280;59542;37.950;-122.338;2023-06-24T08:35:08;101531.94;;;13.87;73.37
70009;BME280;59542;37.950;-122.338;2023-06-24T08:37:36;101531.34;;;13.85;73.77
70009;BME280;59542;37.950;-122.338;2023-06-24T08:40:03;101535.91;;;13.78;73.83
70009;BME280;59542;37.950;-122.338;2023-06-24T08:42:33;101524.94;;;13.80;73.65
70009;BME280;59542;37.950;-122.338;2023-06-24T08:44:59;101531.94;;;13.87;73.32
70009;BME280;59542;37.950;-122.338;2023-06-24T08:47:27;101535.84;;;14.05;72.69
70009;BME280;59542;37.950;-122.338;2023-06-24T08:50:08;101535.22;;;14.03;73.00
70009;BME280;59542;37.950;-122.338;2023-06-24T08:52:38;101538.31;;;14.13;72.75
70009;BME280;59542;37.950;-122.338;2023-06-24T08:55:11;101538.91;;;14.15;72.83
70009;BME280;59542;37.950;-122.338;2023-06-24T08:57:39;101535.19;;;14.16;73.05
70009;BME280;59542;37.950;-122.338;2023-06-24T09:00:07;101526.94;;;14.11;73.70
70009;BME280;59542;37.950;-122.338;2023-06-24T09:02:37;101521.69;;;14.29;73.28
70009;BME280;59542;37.950;-122.338;2023-06-24T09:05:07;101523.97;;;14.25;73.25
70009;BME280;59542;37.950;-122.338;2023-06-24T09:07:34;101528.47;;;14.32;73.74
70009;BME280;59542;37.950;-122.338;2023-06-24T09:10:01;101517.34;;;14.28;73.95
70009;BME280;59542;37.950;-122.338;2023-06-24T09:12:28;101524.09;;;14.37;73.58
70009;BME280;59542;37.950;-122.338;2023-06-24T09:14:57;101514.13;;;14.51;73.32
70009;BME280;59542;37.950;-122.338;2023-06-24T09:17:23;101508.97;;;14.43;73.75
70009;BME280;59542;37.950;-122.338;2023-06-24T09:19:50;101518.50;;;14.45;73.83
70009;BME280;59542;37.950;-122.338;2023-06-24T09:22:16;101516.16;;;14.62;73.06
70009;BME280;59542;37.950;-122.338;2023-06-24T09:24:48;101517.22;;;14.55;73.32
70009;BME280;59542;37.950;-122.338;2023-06-24T09:27:15;101520.03;;;14.73;72.41
70009;BME280;59542;37.950;-122.338;2023-06-24T09:29:43;101516.75;;;14.64;72.73
70009;BME280;59542;37.950;-122.338;2023-06-24T09:32:09;101513.00;;;14.72;72.70
70009;BME280;59542;37.950;-122.338;2023-06-24T09:34:36;101510.50;;;14.70;72.58
70009;BME280;59542;37.950;-122.338;2023-06-24T09:37:03;101513.50;;;14.49;72.77
70009;BME280;59542;37.950;-122.338;2023-06-24T09:39:35;101508.47;;;14.66;72.63
70009;BME280;59542;37.950;-122.338;2023-06-24T09:42:02;101509.59;;;14.45;73.33
70009;BME280;59542;37.950;-122.338;2023-06-24T09:44:30;101509.78;;;14.43;73.17
70009;BME280;59542;37.950;-122.338;2023-06-24T09:46:57;101516.00;;;14.50;73.03
70009;BME280;59542;37.950;-122.338;2023-06-24T09:49:23;101513.75;;;14.47;72.87
70009;BME280;59542;37.950;-122.338;2023-06-24T09:51:56;101514.38;;;14.36;73.75
70009;BME280;59542;37.950;-122.338;2023-06-24T09:54:27;101503.56;;;14.43;73.61
70009;BME280;59542;37.950;-122.338;2023-06-24T09:56:54;101506.47;;;14.48;73.65
70009;BME280;59542;37.950;-122.338;2023-06-24T09:59:24;101508.50;;;14.59;73.65
70009;BME280;59542;37.950;-122.338;2023-06-24T10:01:53;101506.78;;;14.71;73.57
70009;BME280;59542;37.950;-122.338;2023-06-24T10:04:21;101508.88;;;14.63;73.58
70009;BME280;59542;37.950;-122.338;2023-06-24T10:06:50;101503.41;;;14.76;72.79
70009;BME280;59542;37.950;-122.338;2023-06-24T10:09:17;101513.94;;;14.84;72.90
70009;BME280;59542;37.950;-122.338;2023-06-24T10:11:46;101511.94;;;14.73;73.07
70009;BME280;59542;37.950;-122.338;2023-06-24T10:14:14;101513.50;;;14.56;72.96
70009;BME280;59542;37.950;-122.338;2023-06-24T10:16:41;101517.44;;;14.53;73.25
70009;BME280;59542;37.950;-122.338;2023-06-24T10:19:08;101512.94;;;14.78;72.51
70009;BME280;59542;37.950;-122.338;2023-06-24T10:21:51;101507.97;;;14.75;72.76
70009;BME280;59542;37.950;-122.338;2023-06-24T10:24:35;101511.50;;;14.76;72.46
70009;BME280;59542;37.950;-122.338;2023-06-24T10:27:06;101512.13;;;14.78;72.07
70009;BME280;59542;37.950;-122.338;2023-06-24T10:29:34;101507.59;;;14.72;72.18
70009;BME280;59542;37.950;-122.338;2023-06-24T10:32:03;101507.72;;;14.52;72.76
70009;BME280;59542;37.950;-122.338;2023-06-24T10:42:39;101510.22;;;14.47;73.00
70009;BME280;59542;37.950;-122.338;2023-06-24T10:47:38;101507.06;;;14.57;72.41
70009;BME280;59542;37.950;-122.338;2023-06-24T10:50:05;101503.97;;;14.53;72.54
70009;BME280;59542;37.950;-122.338;2023-06-24T10:52:32;101510.44;;;14.39;73.52
70009;BME280;59542;37.950;-122.338;2023-06-24T10:55:00;101506.25;;;14.56;72.55
70009;BME280;59542;37.950;-122.338;2023-06-24T10:57:27;101501.69;;;14.43;73.15
70009;BME280;59542;37.950;-122.338;2023-06-24T10:59:55;101508.13;;;14.49;72.88
70009;BME280;59542;37.950;-122.338;2023-06-24T11:02:24;101508.53;;;14.52;72.58
70009;BME280;59542;37.950;-122.338;2023-06-24T11:04:55;101504.78;;;14.53;72.88
70009;BME280;59542;37.950;-122.338;2023-06-24T11:07:23;101507.25;;;14.62;72.61
70009;BME280;59542;37.950;-122.338;2023-06-24T11:09:54;101506.00;;;14.58;72.46
70009;BME280;59542;37.950;-122.338;2023-06-24T11:12:31;101509.53;;;14.58;72.30
70009;BME280;59542;37.950;-122.338;2023-06-24T11:14:58;101510.44;;;14.39;73.42
70009;BME280;59542;37.950;-122.338;2023-06-24T11:17:26;101506.25;;;14.56;72.91
70009;BME280;59542;37.950;-122.338;2023-06-24T11:19:57;101504.16;;;14.58;72.39
70009;BME280;59542;37.950;-122.338;2023-06-24T11:22:24;101502.97;;;14.41;72.84
70009;BME280;59542;37.950;-122.338;2023-06-24T11:24:51;101505.00;;;14.52;71.71
70009;BME280;59542;37.950;-122.338;2023-06-24T11:27:24;101496.34;;;14.50;71.93
70009;BME280;59542;37.950;-122.338;2023-06-24T11:29:52;101499.81;;;14.57;71.76
70009;BME280;59542;37.950;-122.338;2023-06-24T11:32:19;101496.50;;;14.55;71.85
70009;BME280;59542;37.950;-122.338;2023-06-24T11:34:46;101499.22;;;14.48;72.01
70009;BME280;59542;37.950;-122.338;2023-06-24T11:37:13;101491.13;;;14.55;71.94
70009;BME280;59542;37.950;-122.338;2023-06-24T11:39:40;101493.41;;;14.51;71.94
70009;BME280;59542;37.950;-122.338;2023-06-24T11:42:10;101487.56;;;14.61;71.67
70009;BME280;59542;37.950;-122.338;2023-06-24T11:44:45;101493.16;;;14.60;71.69
70009;BME280;59542;37.950;-122.338;2023-06-24T11:47:12;101492.94;;;14.61;71.69
70009;BME280;59542;37.950;-122.338;2023-06-24T11:49:51;101493.78;;;14.62;71.86
70009;BME280;59542;37.950;-122.338;2023-06-24T11:52:19;101491.72;;;14.57;72.49
70009;BME280;59542;37.950;-122.338;2023-06-24T11:54:45;101490.63;;;14.71;71.53
70009;BME280;59542;37.950;-122.338;2023-06-24T11:57:12;101497.53;;;14.54;72.07
70009;BME280;59542;37.950;-122.338;2023-06-24T11:59:39;101499.75;;;14.64;72.09
70009;BME280;59542;37.950;-122.338;2023-06-24T12:02:05;101505.25;;;14.50;72.38
70009;BME280;59542;37.950;-122.338;2023-06-24T12:04:32;101509.47;;;14.71;71.31
70009;BME280;59542;37.950;-122.338;2023-06-24T12:06:59;101506.97;;;14.70;71.42
70009;BME280;59542;37.950;-122.338;2023-06-24T12:09:26;101511.25;;;14.84;70.77
70009;BME280;59542;37.950;-122.338;2023-06-24T12:11:52;101507.66;;;14.59;72.77
70009;BME280;59542;37.950;-122.338;2023-06-24T12:14:18;101509.19;;;14.79;72.10
70009;BME280;59542;37.950;-122.338;2023-06-24T12:16:45;101515.69;;;14.65;72.55
70009;BME280;59542;37.950;-122.338;2023-06-24T12:19:11;101512.63;;;14.62;72.89
70009;BME280;59542;37.950;-122.338;2023-06-24T12:21:37;101516.69;;;14.71;72.24
70009;BME280;59542;37.950;-122.338;2023-06-24T12:24:04;101514.63;;;14.73;72.32
70009;BME280;59542;37.950;-122.338;2023-06-24T12:26:31;101523.53;;;14.73;72.04
70009;BME280;59542;37.950;-122.338;2023-06-24T12:28:58;101515.41;;;14.80;71.82
70009;BME280;59542;37.950;-122.338;2023-06-24T12:31:24;101517.00;;;14.88;71.15
70009;BME280;59542;37.950;-122.338;2023-06-24T12:33:51;101516.81;;;14.89;71.18
70009;BME280;59542;37.950;-122.338;2023-06-24T12:36:21;101523.91;;;15.09;70.18
70009;BME280;59542;37.950;-122.338;2023-06-24T12:38:47;101521.50;;;15.00;69.72
70009;BME280;59542;37.950;-122.338;2023-06-24T12:41:14;101523.38;;;15.00;70.03
70009;BME280;59542;37.950;-122.338;2023-06-24T12:43:40;101528.38;;;14.96;70.42
70009;BME280;59542;37.950;-122.338;2023-06-24T12:46:06;101530.13;;;15.09;70.10